Charles Town, WV (25414)

08:56 EST 12. Únor 2016 (GMT -0500)
Vinton Farm | | Change Station
CLOSE
Current Station
Osobní povětrnostní stanice
Location: Charles Town, WV
Nadmořská výška: 522 ft
Poblíž povětrnostní stanice

Výška 522 ft 39.27 °N, 77.86 °W | Updated 7 seconds ago

Jasno
Jasno
18.0 °F
Pocit jako 18 °F
S
0.4
Vítr proměnlivý Vítr od JV
Gusts 2.5 mil/h

Dnes
Vysoké -- | Nízké -- °F
--% Možnost srážek
Včera
Vysoké -- | Nízké -- °F
Precip. -- inčů
Tlak 30.27 inčů
Viditelnost 10.0 mílí
Zataženo Skoro zataženo 12000 ft
Ochlazování větrem 18 °F
Rosný bod 2 °F
Vlhkost 48%
Dešťové srážky 0.00 inčů
Sněhová pokrývka Není k dispozici
7:07 AM 5:44 PM
Dorůstající srpek, 20% visible
METAR KMRB 121353Z 19004KT 10SM BKN120 M08/M14 A3024 RMK AO2 SLP251 T10831144
Tlak 30.27 inčů
Viditelnost 10.0 mílí
Zataženo Skoro zataženo 12000 ft
Ochlazování větrem 18 °F
Rosný bod 2 °F
Vlhkost 48%
Dešťové srážky 0.00 inčů
Sněhová pokrývka Není k dispozici
7:07 AM 5:44 PM
Dorůstající srpek, 20% visible
METAR KMRB 121353Z 19004KT 10SM BKN120 M08/M14 A3024 RMK AO2 SLP251 T10831144

10-Day Weather Forecast

Almanac

Astronomie

Feb. 12, 2016 Východ Západ
Skutečný čas
Občanský soumrak
Námořní soumrak
Astronomický soumrak
Měsíc
Délka denního světla
Délka dne
Tomorrow will be .
, % of the Moon is Illuminated

Dnešní extrémy

State Highs State Lows

Community

WunderPhotos

Upload Photos

1,892,313 snímků staženo!

WunderBlog® & News

Nearby

Kvalita ovzduší

  Kvalita ovzduší Index kvality ovzduší Polutant
Not available.

Výška sněhu

Station Hloubka Nadmořská výška

Seizmická činnost

Město Distance Mag. Čas & datum
Minimální zobrazený rozsah je 2.5.

Pobřežní teplota vody

Lokalita Teplota

Stations

Poblíž povětrnostní stanice

Lokace stanice Tepl. Ochlazování větrem Rosný bod Vlhkost Vítr Precip. Výška Čas hlášení Typ
                   

Watches & Warnings

There are currently no watches in effect.